createdAt,value
2023-01-19T00:01:06.732Z,98825.84
2023-01-19T00:03:35.639Z,98834.41
2023-01-19T00:06:07.465Z,98838.62
2023-01-19T00:08:35.956Z,98818.66
2023-01-19T00:11:03.873Z,98812.44
2023-01-19T00:13:31.934Z,98803.94
2023-01-19T00:15:59.741Z,98805.72
2023-01-19T00:18:27.311Z,98819.47
2023-01-19T00:20:54.853Z,98823.09
2023-01-19T00:23:22.694Z,98801.34
2023-01-19T00:25:51.274Z,98806.25
2023-01-19T00:28:19.353Z,98821.50
2023-01-19T00:30:47.289Z,98817.06
2023-01-19T00:33:15.263Z,98820.16
2023-01-19T00:35:43.066Z,98825.91
2023-01-19T00:38:11.702Z,98807.59
2023-01-19T00:40:39.336Z,98817.75
2023-01-19T00:43:06.768Z,98792.56
2023-01-19T00:45:35.264Z,98803.34
2023-01-19T00:48:02.838Z,98803.00
2023-01-19T00:50:32.245Z,98810.38
2023-01-19T00:53:01.687Z,98826.25
2023-01-19T00:55:31.011Z,98822.81
2023-01-19T00:57:58.522Z,98837.38
2023-01-19T01:00:26.545Z,98839.03
2023-01-19T01:02:54.225Z,98850.00
2023-01-19T01:05:22.184Z,98869.47
2023-01-19T01:07:50.772Z,98872.75
2023-01-19T01:10:21.595Z,98867.19
2023-01-19T01:12:54.857Z,98863.25
2023-01-19T01:15:27.197Z,98841.97
2023-01-19T01:17:55.875Z,98841.16
2023-01-19T01:20:27.958Z,98828.06
2023-01-19T01:22:57.086Z,98815.28
2023-01-19T01:25:26.211Z,98824.28
2023-01-19T01:27:54.868Z,98853.25
2023-01-19T01:30:23.295Z,98856.03
2023-01-19T01:32:50.789Z,98844.91
2023-01-19T01:35:18.365Z,98844.75
2023-01-19T01:37:46.146Z,98846.56
2023-01-19T01:40:15.904Z,98847.53
2023-01-19T01:42:43.732Z,98829.34
2023-01-19T01:45:24.649Z,98832.47
2023-01-19T01:47:54.905Z,98831.50
2023-01-19T01:50:26.829Z,98819.37
2023-01-19T01:53:06.583Z,98815.12
2023-01-19T01:55:43.417Z,98820.50
2023-01-19T01:58:12.235Z,98824.44
2023-01-19T02:00:59.001Z,98816.94
2023-01-19T02:03:27.615Z,98831.62
2023-01-19T02:05:59.658Z,98832.47
2023-01-19T02:08:52.997Z,98846.53
2023-01-19T02:11:39.370Z,98858.00
2023-01-19T02:14:07.204Z,98845.56
2023-01-19T02:16:36.366Z,98831.31
2023-01-19T02:19:07.133Z,98834.25
2023-01-19T02:21:46.752Z,98830.00
2023-01-19T02:24:14.853Z,98827.87
2023-01-19T02:26:45.810Z,98820.34
2023-01-19T02:29:22.754Z,98813.63
2023-01-19T02:31:53.972Z,98824.91
2023-01-19T02:34:22.752Z,98843.06
2023-01-19T02:36:54.611Z,98864.00
2023-01-19T02:39:36.467Z,98866.16
2023-01-19T02:42:13.234Z,98877.09
2023-01-19T02:44:43.875Z,98880.87
2023-01-19T02:47:12.334Z,98895.94
2023-01-19T02:49:39.935Z,98893.19
2023-01-19T02:52:15.505Z,98885.66
2023-01-19T02:54:46.197Z,98890.56
2023-01-19T02:57:13.969Z,98901.38
2023-01-19T03:00:04.749Z,98886.63
2023-01-19T03:02:42.276Z,98878.31
2023-01-19T03:05:25.185Z,98861.44
2023-01-19T03:08:06.127Z,98853.22
2023-01-19T03:10:53.583Z,98849.81
2023-01-19T03:13:33.246Z,98834.09
2023-01-19T03:16:12.793Z,98812.47
2023-01-19T03:18:45.293Z,98801.69
2023-01-19T03:21:15.081Z,98791.88
2023-01-19T03:23:46.294Z,98795.47
2023-01-19T03:26:18.991Z,98820.00
2023-01-19T03:28:48.944Z,98844.72
2023-01-19T03:31:24.288Z,98846.19
2023-01-19T03:33:56.168Z,98842.94
2023-01-19T03:36:35.128Z,98844.91
2023-01-19T03:39:06.034Z,98844.72
2023-01-19T03:41:34.624Z,98831.31
2023-01-19T03:44:02.845Z,98824.09
2023-01-19T03:46:31.293Z,98831.12
2023-01-19T03:48:59.291Z,98837.38
2023-01-19T03:51:27.848Z,98835.91
2023-01-19T03:53:55.478Z,98851.44
2023-01-19T03:56:25.464Z,98839.66
2023-01-19T03:58:53.512Z,98843.06
2023-01-19T04:01:22.999Z,98835.22
2023-01-19T04:03:51.984Z,98827.37
2023-01-19T04:06:20.721Z,98820.66
2023-01-19T04:08:52.026Z,98824.91
2023-01-19T04:11:19.841Z,98835.06
2023-01-19T04:13:47.281Z,98843.88
2023-01-19T04:16:19.993Z,98846.34
2023-01-19T04:18:48.584Z,98849.94
2023-01-19T04:21:16.889Z,98837.69
2023-01-19T04:23:47.128Z,98854.03
2023-01-19T04:26:14.961Z,98854.53
2023-01-19T04:28:42.842Z,98852.75
2023-01-19T04:31:10.344Z,98852.56
2023-01-19T04:33:38.005Z,98849.81
2023-01-19T04:36:05.871Z,98844.56
2023-01-19T04:38:33.445Z,98851.28
2023-01-19T04:41:01.158Z,98852.06
2023-01-19T04:43:28.997Z,98854.22
2023-01-19T04:45:56.880Z,98855.03
2023-01-19T04:48:24.677Z,98854.22
2023-01-19T04:50:52.634Z,98868.44
2023-01-19T04:53:20.073Z,98868.59
2023-01-19T04:55:48.137Z,98869.56
2023-01-19T04:58:15.803Z,98867.78
2023-01-19T05:00:43.655Z,98869.56
2023-01-19T05:03:11.700Z,98864.19
2023-01-19T05:05:39.170Z,98865.31
2023-01-19T05:08:06.701Z,98875.63
2023-01-19T05:10:34.410Z,98874.31
2023-01-19T05:13:02.303Z,98879.69
2023-01-19T05:15:29.948Z,98883.16
2023-01-19T05:17:58.145Z,98883.31
2023-01-19T05:20:25.613Z,98877.91
2023-01-19T05:22:53.594Z,98876.25
2023-01-19T05:25:21.460Z,98873.66
2023-01-19T05:27:49.018Z,98879.53
2023-01-19T05:30:16.897Z,98876.56
2023-01-19T05:32:44.887Z,98873.31
2023-01-19T05:35:15.411Z,98870.19
2023-01-19T05:37:44.555Z,98869.16
2023-01-19T05:40:12.370Z,98876.44
2023-01-19T05:42:39.853Z,98882.34
2023-01-19T05:45:08.281Z,98882.34
2023-01-19T05:47:35.767Z,98895.41
2023-01-19T05:50:04.050Z,98908.59
2023-01-19T05:52:31.741Z,98921.69
2023-01-19T05:54:59.145Z,98926.91
2023-01-19T05:57:26.647Z,98939.69
2023-01-19T05:59:54.479Z,98949.03
2023-01-19T06:02:28.576Z,98960.03
2023-01-19T06:04:57.118Z,98972.47
2023-01-19T06:07:25.660Z,98991.88
2023-01-19T06:09:54.185Z,98992.63
2023-01-19T06:12:22.141Z,98994.06
2023-01-19T06:14:49.570Z,98987.94
2023-01-19T06:17:17.285Z,98996.38
2023-01-19T06:19:45.010Z,98981.13
2023-01-19T06:22:12.519Z,99002.84
2023-01-19T06:24:39.932Z,98989.94
2023-01-19T06:27:07.866Z,98995.16
2023-01-19T06:29:35.404Z,98994.63
2023-01-19T06:32:02.981Z,98994.31
2023-01-19T06:34:30.761Z,98999.78
2023-01-19T06:36:58.955Z,99015.44
2023-01-19T06:39:27.588Z,99014.41
2023-01-19T06:41:55.471Z,99003.72
2023-01-19T06:44:22.911Z,99007.59
2023-01-19T06:46:50.377Z,99013.59
2023-01-19T06:49:18.405Z,99024.38
2023-01-19T06:51:45.953Z,99028.66
2023-01-19T06:54:13.536Z,99027.84
2023-01-19T06:56:41.254Z,99038.75
2023-01-19T06:59:09.862Z,99038.19
2023-01-19T07:01:37.305Z,99046.22
2023-01-19T07:04:05.436Z,99050.25
2023-01-19T07:06:32.962Z,99069.03
2023-01-19T07:09:00.387Z,99070.38
2023-01-19T07:11:32.338Z,99063.72
2023-01-19T07:14:00.938Z,99061.19
2023-01-19T07:16:28.733Z,99061.94
2023-01-19T07:18:56.480Z,99059.34
2023-01-19T07:21:23.965Z,99067.84
2023-01-19T07:23:52.628Z,99068.12
2023-01-19T07:26:21.447Z,99060.41
2023-01-19T07:28:49.673Z,99061.94
2023-01-19T07:31:18.949Z,99063.22
2023-01-19T07:33:47.212Z,99058.22
2023-01-19T07:36:15.166Z,99062.63
2023-01-19T07:38:43.293Z,99060.06
2023-01-19T07:41:11.181Z,99072.78
2023-01-19T07:43:38.793Z,99084.59
2023-01-19T07:46:08.378Z,99083.03
2023-01-19T07:48:37.276Z,99084.44
2023-01-19T07:51:10.389Z,99078.47
2023-01-19T07:53:40.070Z,99079.16
2023-01-19T07:56:07.942Z,99066.78
2023-01-19T07:58:36.310Z,99064.78
2023-01-19T08:01:09.716Z,99050.97
2023-01-19T08:03:38.240Z,99048.75
2023-01-19T08:06:07.210Z,99030.69
2023-01-19T08:08:35.487Z,99027.56
2023-01-19T08:11:03.264Z,99030.84
2023-01-19T08:13:30.663Z,99030.84
2023-01-19T08:15:58.312Z,99023.59
2023-01-19T08:18:26.165Z,99036.44
2023-01-19T08:20:54.049Z,99048.09
2023-01-19T08:23:21.721Z,99064.19
2023-01-19T08:25:49.463Z,99076.78
2023-01-19T08:28:17.739Z,99079.59
2023-01-19T08:30:45.504Z,99074.28
2023-01-19T08:33:13.932Z,99062.72
2023-01-19T08:35:43.486Z,99079.97
2023-01-19T08:38:11.204Z,99109.91
2023-01-19T08:40:40.686Z,99098.00
2023-01-19T08:43:14.153Z,99048.09
2023-01-19T08:45:49.153Z,99039.16
2023-01-19T08:48:18.677Z,99043.81
2023-01-19T08:50:50.202Z,99031.75
2023-01-19T08:53:19.208Z,99057.91
2023-01-19T08:55:47.285Z,99059.38
2023-01-19T08:58:14.747Z,99066.62
2023-01-19T09:00:42.507Z,99073.63
2023-01-19T09:03:12.809Z,99076.41
2023-01-19T09:05:40.938Z,99079.37
2023-01-19T09:08:11.314Z,99091.44
2023-01-19T09:10:44.541Z,99113.12
2023-01-19T09:13:13.025Z,99118.22
2023-01-19T09:15:42.177Z,99131.87
2023-01-19T09:18:13.651Z,99128.34
2023-01-19T09:20:43.012Z,99128.19
2023-01-19T09:23:17.186Z,99123.28
2023-01-19T09:25:46.293Z,99145.19
2023-01-19T09:28:16.397Z,99135.97
2023-01-19T09:30:44.881Z,99137.47
2023-01-19T09:33:15.279Z,99132.78
2023-01-19T09:35:44.971Z,99126.59
2023-01-19T09:38:15.324Z,99124.22
2023-01-19T09:40:51.845Z,99129.66
2023-01-19T09:43:25.751Z,99131.50
2023-01-19T09:46:00.769Z,99120.19
2023-01-19T09:48:32.349Z,99125.25
2023-01-19T09:51:04.386Z,99123.38
2023-01-19T09:53:47.126Z,99111.16
2023-01-19T09:56:17.583Z,99121.72
2023-01-19T09:58:46.722Z,99121.31
2023-01-19T10:01:37.683Z,99123.34
2023-01-19T10:04:50.582Z,99130.81
2023-01-19T10:07:44.216Z,99122.69
2023-01-19T10:10:14.901Z,99123.63
2023-01-19T10:13:04.046Z,99115.88
2023-01-19T10:15:38.019Z,99103.25
2023-01-19T10:18:25.346Z,99095.38
2023-01-19T10:21:04.588Z,99090.78
2023-01-19T10:23:44.241Z,99093.97
2023-01-19T10:26:22.100Z,99103.03
2023-01-19T10:28:54.240Z,99109.84
2023-01-19T10:31:24.270Z,99114.16
2023-01-19T10:33:52.985Z,99113.94
2023-01-19T10:36:25.926Z,99112.88
2023-01-19T10:38:53.682Z,99092.25
2023-01-19T10:41:31.616Z,99121.00
2023-01-19T10:44:02.426Z,99119.31
2023-01-19T10:46:48.240Z,99116.97
2023-01-19T10:49:27.394Z,99123.59
2023-01-19T10:52:04.678Z,99111.09
2023-01-19T10:54:34.843Z,99110.72
2023-01-19T10:57:05.470Z,99117.22
2023-01-19T10:59:37.314Z,99122.97
2023-01-19T11:02:15.971Z,99121.75
2023-01-19T11:04:47.273Z,99124.25
2023-01-19T11:07:20.647Z,99120.34
2023-01-19T11:09:49.786Z,99123.50
2023-01-19T11:12:23.220Z,99121.16
2023-01-19T11:14:51.814Z,99126.00
2023-01-19T11:17:25.732Z,99140.94
2023-01-19T11:20:00.150Z,99142.56
2023-01-19T11:22:33.707Z,99149.22
2023-01-19T11:25:04.218Z,99151.88
2023-01-19T11:27:35.784Z,99140.88
2023-01-19T11:30:30.968Z,99165.47
2023-01-19T11:32:58.551Z,99164.22
2023-01-19T11:35:37.471Z,99194.31
2023-01-19T11:38:06.464Z,99201.59
2023-01-19T11:40:35.398Z,99213.12
2023-01-19T11:43:03.450Z,99219.72
2023-01-19T11:45:34.055Z,99221.38
2023-01-19T11:48:06.019Z,99227.41
2023-01-19T11:50:40.987Z,99238.22
2023-01-19T11:53:17.567Z,99247.97
2023-01-19T11:56:08.362Z,99252.03
2023-01-19T11:58:42.125Z,99251.06
2023-01-19T12:01:30.536Z,99252.59
2023-01-19T12:04:07.528Z,99261.13
2023-01-19T12:06:39.835Z,99276.75
2023-01-19T12:09:17.341Z,99282.09
2023-01-19T12:11:50.994Z,99282.28
2023-01-19T12:14:27.190Z,99290.38
2023-01-19T12:16:59.150Z,99283.69
2023-01-19T12:19:55.239Z,99285.72
2023-01-19T12:22:24.070Z,99287.81
2023-01-19T12:25:06.210Z,99284.37
2023-01-19T12:27:43.974Z,99284.00
2023-01-19T12:30:22.671Z,99275.06
2023-01-19T12:32:53.488Z,99277.00
2023-01-19T12:35:58.165Z,99288.50
2023-01-19T12:38:34.733Z,99278.94
2023-01-19T12:41:31.956Z,99285.37
2023-01-19T12:44:14.118Z,99299.09
2023-01-19T12:46:55.253Z,99295.41
2023-01-19T12:49:31.662Z,99302.94
2023-01-19T12:52:34.351Z,99315.44
2023-01-19T12:55:14.790Z,99317.22
2023-01-19T12:58:01.542Z,99329.09
2023-01-19T13:00:35.461Z,99335.94
2023-01-19T13:03:18.737Z,99331.84
2023-01-19T13:05:55.354Z,99332.13
2023-01-19T13:08:30.482Z,99337.59
2023-01-19T13:11:02.735Z,99354.13
2023-01-19T13:13:39.834Z,99360.63
2023-01-19T13:16:19.395Z,99374.41
2023-01-19T13:18:59.171Z,99367.00
2023-01-19T13:21:33.574Z,99376.56
2023-01-19T13:24:04.249Z,99381.22
2023-01-19T13:26:42.309Z,99388.34
2023-01-19T13:29:30.291Z,99397.44
2023-01-19T13:32:02.988Z,99409.06
2023-01-19T13:34:37.281Z,99430.66
2023-01-19T13:37:06.259Z,99454.78
2023-01-19T13:39:44.484Z,99454.97
2023-01-19T13:42:18.520Z,99454.28
2023-01-19T13:44:52.443Z,99463.03
2023-01-19T13:47:26.526Z,99465.06
2023-01-19T13:49:58.684Z,99467.53
2023-01-19T13:52:28.672Z,99476.19
2023-01-19T13:55:01.294Z,99485.69
2023-01-19T13:57:33.402Z,99482.66
2023-01-19T14:00:14.329Z,99487.94
2023-01-19T14:03:05.121Z,99491.75
2023-01-19T14:05:37.909Z,99500.84
2023-01-19T14:08:08.761Z,99499.19
2023-01-19T14:10:39.119Z,99498.97
2023-01-19T14:13:13.340Z,99517.50
2023-01-19T14:15:40.958Z,99528.53
2023-01-19T14:18:24.566Z,99518.81
2023-01-19T14:21:16.077Z,99529.97
2023-01-19T14:23:45.562Z,99531.81
2023-01-19T14:26:37.909Z,99542.00
2023-01-19T14:29:28.931Z,99551.22
2023-01-19T14:32:02.353Z,99571.28
2023-01-19T14:34:41.631Z,99577.47
2023-01-19T14:37:32.679Z,99578.25
2023-01-19T14:40:14.926Z,99599.34
2023-01-19T14:42:42.320Z,99599.78
2023-01-19T14:45:25.691Z,99602.72
2023-01-19T14:47:57.087Z,99610.44
2023-01-19T14:50:29.006Z,99630.16
2023-01-19T14:53:00.840Z,99626.47
2023-01-19T14:55:45.149Z,99630.16
2023-01-19T14:58:15.979Z,99631.81
2023-01-19T15:00:44.651Z,99608.28
2023-01-19T15:03:13.272Z,99620.25
2023-01-19T15:05:44.005Z,99616.47
2023-01-19T15:08:29.116Z,99617.31
2023-01-19T15:10:58.157Z,99605.47
2023-01-19T15:13:27.590Z,99607.81
2023-01-19T15:15:55.072Z,99608.88
2023-01-19T15:18:26.537Z,99608.88
2023-01-19T15:21:02.803Z,99620.91
2023-01-19T15:23:31.358Z,99627.81
2023-01-19T15:26:00.991Z,99626.31
2023-01-19T15:28:30.725Z,99625.34
2023-01-19T15:30:59.731Z,99624.91
2023-01-19T15:33:32.554Z,99624.47
2023-01-19T15:36:00.126Z,99630.97
2023-01-19T15:38:27.976Z,99636.88
2023-01-19T15:40:55.456Z,99645.16
2023-01-19T15:43:23.052Z,99653.75
2023-01-19T15:46:00.779Z,99653.41
2023-01-19T15:48:28.283Z,99661.62
2023-01-19T15:50:56.042Z,99666.50
2023-01-19T15:53:24.277Z,99678.78
2023-01-19T15:55:55.466Z,99679.59
2023-01-19T15:58:24.696Z,99681.97
2023-01-19T16:00:57.219Z,99680.19
2023-01-19T16:03:26.086Z,99691.31
2023-01-19T16:05:53.597Z,99698.47
2023-01-19T16:08:22.149Z,99708.62
2023-01-19T16:10:49.946Z,99709.34
2023-01-19T16:13:17.395Z,99715.75
2023-01-19T16:15:44.947Z,99721.28
2023-01-19T16:18:12.708Z,99734.37
2023-01-19T16:20:40.198Z,99735.13
2023-01-19T16:23:15.792Z,99738.44
2023-01-19T16:25:43.736Z,99752.06
2023-01-19T16:28:11.513Z,99743.59
2023-01-19T16:30:38.952Z,99755.97
2023-01-19T16:33:06.846Z,99768.75
2023-01-19T16:35:34.598Z,99760.16
2023-01-19T16:38:02.127Z,99767.97
2023-01-19T16:40:29.910Z,99767.03
2023-01-19T16:42:58.009Z,99775.53
2023-01-19T16:45:25.484Z,99775.31
2023-01-19T16:47:53.637Z,99773.34
2023-01-19T16:50:21.110Z,99783.75
2023-01-19T16:52:50.637Z,99781.13
2023-01-19T16:55:18.626Z,99788.25
2023-01-19T16:57:46.365Z,99786.16
2023-01-19T17:00:14.510Z,99785.41
2023-01-19T17:02:43.210Z,99785.56
2023-01-19T17:05:11.140Z,99788.25
2023-01-19T17:07:38.755Z,99786.69
2023-01-19T17:10:07.381Z,99794.66
2023-01-19T17:12:35.005Z,99809.19
2023-01-19T17:15:02.803Z,99806.44
2023-01-19T17:17:30.807Z,99820.63
2023-01-19T17:20:00.232Z,99813.88
2023-01-19T17:22:27.967Z,99817.87
2023-01-19T17:24:55.663Z,99822.69
2023-01-19T17:27:23.256Z,99836.19
2023-01-19T17:29:50.808Z,99850.97
2023-01-19T17:32:18.575Z,99865.84
2023-01-19T17:34:49.257Z,99858.97
2023-01-19T17:37:16.794Z,99860.66
2023-01-19T17:39:44.757Z,99860.59
2023-01-19T17:42:12.517Z,99857.91
2023-01-19T17:44:42.270Z,99858.41
2023-01-19T17:47:10.103Z,99857.50
2023-01-19T17:49:43.707Z,99860.12
2023-01-19T17:52:12.598Z,99853.38
2023-01-19T17:54:40.255Z,99848.56
2023-01-19T17:57:07.829Z,99848.13
2023-01-19T17:59:36.813Z,99839.28
2023-01-19T18:02:04.836Z,99844.91
2023-01-19T18:04:32.793Z,99843.09
2023-01-19T18:07:00.532Z,99855.22
2023-01-19T18:09:28.181Z,99842.53
2023-01-19T18:11:56.168Z,99837.34
2023-01-19T18:14:23.874Z,99838.09
2023-01-19T18:16:53.012Z,99838.75
2023-01-19T18:19:22.455Z,99840.94
2023-01-19T18:21:50.983Z,99839.47
2023-01-19T18:24:18.822Z,99839.47
2023-01-19T18:26:46.643Z,99832.50
2023-01-19T18:29:16.678Z,99832.13
2023-01-19T18:31:44.547Z,99830.34
2023-01-19T18:34:12.315Z,99846.28
2023-01-19T18:36:40.053Z,99856.13
2023-01-19T18:39:09.428Z,99867.34
2023-01-19T18:41:42.281Z,99872.47
2023-01-19T18:44:10.546Z,99875.28
2023-01-19T18:46:39.089Z,99881.25
2023-01-19T18:49:06.762Z,99886.56
2023-01-19T18:51:34.525Z,99884.97
2023-01-19T18:54:02.805Z,99878.31
2023-01-19T18:56:30.562Z,99883.31
2023-01-19T18:58:58.538Z,99892.22
2023-01-19T19:01:32.495Z,99897.06
2023-01-19T19:04:01.437Z,99905.56
2023-01-19T19:06:29.662Z,99922.44
2023-01-19T19:08:59.510Z,99891.22
2023-01-19T19:11:28.006Z,99893.56
2023-01-19T19:13:59.116Z,99902.19
2023-01-19T19:16:29.637Z,99897.06
2023-01-19T19:18:59.071Z,99902.19
2023-01-19T19:21:27.342Z,99909.91
2023-01-19T19:23:57.468Z,99919.13
2023-01-19T19:26:28.155Z,99931.44
2023-01-19T19:28:56.553Z,99926.94
2023-01-19T19:31:27.537Z,99936.50
2023-01-19T19:33:57.155Z,99960.75
2023-01-19T19:36:26.911Z,99960.53
2023-01-19T19:38:55.289Z,99943.50
2023-01-19T19:41:27.143Z,99935.06
2023-01-19T19:43:55.822Z,99938.09
2023-01-19T19:46:24.731Z,99940.09
2023-01-19T19:48:53.464Z,99930.09
2023-01-19T19:51:25.353Z,99928.25
2023-01-19T19:53:55.647Z,99919.19
2023-01-19T19:56:24.948Z,99920.69
2023-01-19T19:58:54.879Z,99924.63
2023-01-19T20:01:27.585Z,99910.31
2023-01-19T20:03:57.327Z,99895.44
2023-01-19T20:06:26.789Z,99889.63
2023-01-19T20:08:55.969Z,99896.81
2023-01-19T20:11:27.449Z,99922.59
2023-01-19T20:13:55.517Z,99944.72
2023-01-19T20:16:24.089Z,99951.56
2023-01-19T20:18:56.859Z,99957.72
2023-01-19T20:21:27.953Z,99957.41
2023-01-19T20:23:59.206Z,99949.81
2023-01-19T20:26:30.757Z,99958.75
2023-01-19T20:29:02.974Z,99972.91
2023-01-19T20:31:33.071Z,99974.25
2023-01-19T20:34:04.498Z,99971.66
2023-01-19T20:36:32.600Z,99981.31
2023-01-19T20:39:02.857Z,99999.81
2023-01-19T20:41:31.113Z,99986.28
2023-01-19T20:43:58.727Z,99992.00
2023-01-19T20:46:26.329Z,99988.78
2023-01-19T20:48:54.785Z,99986.09
2023-01-19T20:51:23.061Z,99993.91
2023-01-19T20:53:51.224Z,99991.81
2023-01-19T20:56:19.324Z,99989.84
2023-01-19T20:58:47.075Z,99990.12
2023-01-19T21:01:21.091Z,99991.91
2023-01-19T21:03:49.496Z,99996.38
2023-01-19T21:06:17.454Z,99994.19
2023-01-19T21:08:45.357Z,99997.44
2023-01-19T21:11:13.375Z,99988.78
2023-01-19T21:13:41.133Z,99996.81
2023-01-19T21:16:08.870Z,100002.72
2023-01-19T21:18:36.825Z,100013.44
2023-01-19T21:21:05.406Z,100015.81
2023-01-19T21:23:34.177Z,100029.66
2023-01-19T21:26:02.125Z,100024.03
2023-01-19T21:28:31.614Z,100029.12
2023-01-19T21:31:09.207Z,100025.78
2023-01-19T21:33:37.060Z,100019.44
2023-01-19T21:36:04.735Z,100017.75
2023-01-19T21:38:34.869Z,100014.88
2023-01-19T21:41:08.252Z,100016.59
2023-01-19T21:43:38.978Z,100013.50
2023-01-19T21:46:14.411Z,99999.78
2023-01-19T21:48:42.557Z,99993.09
2023-01-19T21:51:10.521Z,99996.34
2023-01-19T21:53:38.343Z,99998.34
2023-01-19T21:56:07.538Z,99996.22
2023-01-19T21:58:35.593Z,99985.16
2023-01-19T22:01:07.014Z,99979.84
2023-01-19T22:03:35.048Z,99959.16
2023-01-19T22:06:07.148Z,99956.88
2023-01-19T22:08:35.842Z,99957.63
2023-01-19T22:11:05.497Z,99950.31
2023-01-19T22:13:34.012Z,99952.59
2023-01-19T22:16:03.285Z,99948.00
2023-01-19T22:18:31.301Z,99937.88
2023-01-19T22:21:07.815Z,99935.34
2023-01-19T22:23:36.389Z,99927.78
2023-01-19T22:26:04.387Z,99917.78
2023-01-19T22:28:32.518Z,99920.34
2023-01-19T22:31:14.594Z,99936.97
2023-01-19T22:33:42.852Z,99940.28
2023-01-19T22:36:19.761Z,99950.06
2023-01-19T22:39:00.900Z,99959.75
2023-01-19T22:41:34.287Z,99953.50
2023-01-19T22:44:04.335Z,99953.19
2023-01-19T22:46:34.180Z,99965.91
2023-01-19T22:49:02.179Z,99961.16
2023-01-19T22:51:31.251Z,99956.37
2023-01-19T22:53:59.540Z,99960.38
2023-01-19T22:56:30.143Z,99960.41
2023-01-19T22:58:58.573Z,99960.50
2023-01-19T23:01:30.188Z,99960.09
2023-01-19T23:03:57.718Z,99960.94
2023-01-19T23:06:27.617Z,99970.91
2023-01-19T23:08:58.012Z,99950.66
2023-01-19T23:11:35.597Z,99955.66
2023-01-19T23:14:04.974Z,99956.06
2023-01-19T23:16:32.841Z,99948.69
2023-01-19T23:19:00.474Z,99940.37
2023-01-19T23:21:30.430Z,99935.38
2023-01-19T23:24:00.601Z,99926.25
2023-01-19T23:26:30.807Z,99927.47
2023-01-19T23:29:01.693Z,99920.06
2023-01-19T23:31:32.365Z,99928.19
2023-01-19T23:34:02.192Z,99928.09
2023-01-19T23:36:32.334Z,99931.53
2023-01-19T23:39:02.569Z,99918.94
2023-01-19T23:41:33.210Z,99915.81
2023-01-19T23:44:01.096Z,99922.16
2023-01-19T23:46:29.140Z,99923.59
2023-01-19T23:48:57.062Z,99929.38
2023-01-19T23:51:27.578Z,99926.47
2023-01-19T23:53:56.591Z,99928.53
2023-01-19T23:56:27.430Z,99930.03
2023-01-19T23:59:00.428Z,99926.34
